Terminal Aerodrome Forecast
Issued by NWS Sterling, VA

Home | Current Version | Previous Version | Text Only | Print | Product List | Glossary On
Versions: 1 2 3 4 5 6 7 8 9 10 11 12 13 14 15 16 17 18 19 20 21 22 23
000
FTUS41 KLWX 201700
TAFBWI
TAF
KBWI 201737Z 2018/2124 16007KT P6SM SCT050
     FM201900 16008KT P6SM BKN050
     FM202200 16007KT P6SM VCTS BKN050CB
     FM210000 16006KT P6SM BKN050
     FM211000 00000KT P6SM SCT008 BKN050
     FM212100 24004KT 6SM -SHRA VCTS BKN050CB
     FM212300 00000KT 6SM -SHRA VCTS BKN050CB=

USA.gov is the U.S. government's official web portal to all federal, state and local government web resources and services.